Terminal Aerodrome Forecast
Issued by NWS

Home | Current Version | Previous Version | Text Only | Print | Product List | Glossary On
Versions: 1 2 3 4 5 6 7 8 9 10 11 12 13 14 15 16 17 18 19 20 21 22 23 24 25
000
FTAK31 PAFA 010538
TAFATA
TAF
PATA 010538Z 0106/0206 VRB05KT P6SM BKN050 OVC090
     FM011200 14005KT P6SM SCT035 BKN060
     FM011500 19010KT 4SM -RA BR BKN020 OVC035
     FM012000 19012KT 3SM RA BR SCT008 BKN012 OVC020 WS020/23040KT=

USA.gov is the U.S. government's official web portal to all federal, state and local government web resources and services.